createdAt,value
2022-10-16T00:02:01.444Z,5.85
2022-10-16T00:04:28.604Z,6.43
2022-10-16T00:06:55.886Z,6.22
2022-10-16T00:09:23.113Z,6.70
2022-10-16T00:11:50.598Z,6.90
2022-10-16T00:14:17.782Z,6.30
2022-10-16T00:16:45.052Z,6.65
2022-10-16T00:19:13.377Z,6.35
2022-10-16T00:21:40.499Z,6.70
2022-10-16T00:24:09.772Z,6.85
2022-10-16T00:26:37.313Z,5.85
2022-10-16T00:29:04.582Z,6.20
2022-10-16T00:31:31.971Z,6.55
2022-10-16T00:33:59.153Z,6.78
2022-10-16T00:36:27.733Z,6.97
2022-10-16T00:38:56.525Z,6.45
2022-10-16T00:41:24.642Z,7.10
2022-10-16T00:43:51.732Z,7.30
2022-10-16T00:46:18.882Z,7.65
2022-10-16T00:48:48.265Z,7.35
2022-10-16T00:51:15.673Z,7.47
2022-10-16T00:53:42.978Z,7.53
2022-10-16T00:56:10.111Z,8.05
2022-10-16T00:58:37.393Z,7.30
2022-10-16T01:01:04.647Z,6.90
2022-10-16T01:03:34.209Z,7.32
2022-10-16T01:09:15.381Z,8.80
2022-10-16T01:11:45.969Z,8.48
2022-10-16T01:14:28.870Z,8.13
2022-10-16T01:17:14.826Z,9.05
2022-10-16T01:20:02.471Z,8.93
2022-10-16T01:22:35.112Z,9.98
2022-10-16T01:25:07.101Z,9.75
2022-10-16T01:27:37.812Z,9.80
2022-10-16T01:30:27.275Z,9.50
2022-10-16T01:33:11.836Z,10.55
2022-10-16T01:35:40.513Z,9.25
2022-10-16T01:38:19.502Z,10.40
2022-10-16T01:40:48.529Z,10.07
2022-10-16T01:43:28.923Z,10.70
2022-10-16T01:45:56.564Z,9.80
2022-10-16T01:48:24.954Z,9.43
2022-10-16T01:51:12.381Z,11.73
2022-10-16T01:53:40.686Z,10.70
2022-10-16T01:56:11.395Z,12.00
2022-10-16T01:58:42.066Z,10.75
2022-10-16T02:01:11.424Z,9.10
2022-10-16T02:03:39.622Z,7.45
2022-10-16T02:06:06.999Z,8.68
2022-10-16T02:08:34.730Z,7.57
2022-10-16T02:11:02.614Z,6.72
2022-10-16T02:13:33.527Z,7.00
2022-10-16T02:16:01.029Z,7.20
2022-10-16T02:18:31.830Z,7.32
2022-10-16T02:21:06.482Z,6.90
2022-10-16T02:23:57.640Z,7.82
2022-10-16T02:26:33.358Z,7.78
2022-10-16T02:29:05.568Z,7.70
2022-10-16T02:31:35.241Z,6.88
2022-10-16T02:34:03.650Z,7.85
2022-10-16T02:36:31.161Z,6.80
2022-10-16T02:39:00.258Z,7.43
2022-10-16T02:41:27.936Z,7.22
2022-10-16T02:43:56.046Z,7.55
2022-10-16T02:46:23.322Z,6.97
2022-10-16T02:48:50.446Z,7.60
2022-10-16T02:51:17.605Z,7.05
2022-10-16T02:53:44.870Z,8.07
2022-10-16T02:56:12.078Z,7.90
2022-10-16T02:58:39.247Z,7.93
2022-10-16T03:01:06.536Z,8.30
2022-10-16T03:03:33.694Z,8.55
2022-10-16T03:06:00.820Z,7.47
2022-10-16T03:08:28.033Z,8.35
2022-10-16T03:10:55.176Z,7.90
2022-10-16T03:13:22.382Z,8.38
2022-10-16T03:15:49.708Z,8.10
2022-10-16T03:18:16.860Z,7.78
2022-10-16T03:20:47.082Z,8.50
2022-10-16T03:23:14.373Z,8.13
2022-10-16T03:25:41.678Z,10.32
2022-10-16T03:28:09.310Z,10.13
2022-10-16T03:30:36.510Z,9.40
2022-10-16T03:33:03.642Z,9.77
2022-10-16T03:35:30.884Z,10.00
2022-10-16T03:37:58.220Z,9.68
2022-10-16T03:40:25.390Z,9.93
2022-10-16T03:42:52.585Z,10.63
2022-10-16T03:45:19.778Z,9.75
2022-10-16T03:47:46.967Z,8.88
2022-10-16T03:50:14.095Z,8.90
2022-10-16T03:52:41.358Z,8.52
2022-10-16T03:55:08.759Z,10.20
2022-10-16T03:57:35.876Z,9.13
2022-10-16T04:00:03.185Z,8.68
2022-10-16T04:02:30.296Z,10.57
2022-10-16T04:04:57.420Z,10.35
2022-10-16T04:07:24.924Z,10.07
2022-10-16T04:09:53.158Z,9.43
2022-10-16T04:12:20.308Z,9.20
2022-10-16T04:14:47.538Z,10.05
2022-10-16T04:17:14.703Z,10.23
2022-10-16T04:19:41.815Z,11.20
2022-10-16T04:22:09.083Z,10.55
2022-10-16T04:24:36.516Z,8.48
2022-10-16T04:27:03.648Z,9.60
2022-10-16T04:29:30.906Z,9.27
2022-10-16T04:31:58.038Z,10.02
2022-10-16T04:34:25.204Z,10.32
2022-10-16T04:36:52.399Z,9.35
2022-10-16T04:39:19.524Z,9.52
2022-10-16T04:41:46.643Z,9.95
2022-10-16T04:44:13.894Z,8.55
2022-10-16T04:46:41.001Z,8.82
2022-10-16T04:49:08.113Z,8.85
2022-10-16T04:51:35.300Z,8.38
2022-10-16T04:54:02.438Z,7.70
2022-10-16T04:56:29.609Z,8.73
2022-10-16T04:58:56.808Z,7.43
2022-10-16T05:01:23.946Z,8.35
2022-10-16T05:03:51.051Z,7.93
2022-10-16T05:06:18.261Z,8.25
2022-10-16T05:08:45.410Z,8.85
2022-10-16T05:11:12.539Z,8.20
2022-10-16T05:13:39.803Z,7.55
2022-10-16T05:16:07.163Z,7.82
2022-10-16T05:18:34.298Z,8.45
2022-10-16T05:21:01.478Z,8.15
2022-10-16T05:23:28.588Z,8.32
2022-10-16T05:25:56.647Z,8.23
2022-10-16T05:28:23.906Z,8.25
2022-10-16T05:30:51.062Z,7.78
2022-10-16T05:33:18.199Z,7.93
2022-10-16T05:35:46.165Z,8.77
2022-10-16T05:38:13.263Z,8.85
2022-10-16T05:40:40.527Z,8.90
2022-10-16T05:43:07.682Z,7.63
2022-10-16T05:45:34.907Z,8.35
2022-10-16T05:48:02.359Z,8.10
2022-10-16T05:50:29.562Z,8.43
2022-10-16T05:52:56.855Z,8.35
2022-10-16T05:55:24.024Z,8.82
2022-10-16T05:57:51.202Z,8.30
2022-10-16T06:00:18.448Z,8.63
2022-10-16T06:02:45.611Z,8.32
2022-10-16T06:05:12.800Z,7.90
2022-10-16T06:07:39.918Z,8.13
2022-10-16T06:10:07.582Z,7.68
2022-10-16T06:12:34.748Z,8.38
2022-10-16T06:15:01.881Z,8.60
2022-10-16T06:17:29.346Z,9.18
2022-10-16T06:19:56.718Z,8.05
2022-10-16T06:22:23.911Z,8.43
2022-10-16T06:24:51.102Z,8.95
2022-10-16T06:27:18.358Z,9.77
2022-10-16T06:29:46.116Z,9.07
2022-10-16T06:32:13.237Z,9.13
2022-10-16T06:34:44.145Z,9.50
2022-10-16T06:37:11.401Z,9.80
2022-10-16T06:39:38.502Z,9.48
2022-10-16T06:42:05.855Z,10.10
2022-10-16T06:44:32.960Z,9.60
2022-10-16T06:47:00.103Z,10.30
2022-10-16T06:49:27.346Z,9.68
2022-10-16T06:51:54.488Z,9.93
2022-10-16T06:54:21.661Z,10.63
2022-10-16T06:56:48.851Z,9.90
2022-10-16T06:59:16.045Z,10.13
2022-10-16T07:01:43.168Z,11.43
2022-10-16T07:04:10.366Z,10.35
2022-10-16T07:06:37.494Z,10.90
2022-10-16T07:09:06.105Z,10.98
2022-10-16T07:11:33.732Z,11.25
2022-10-16T07:14:00.856Z,11.38
2022-10-16T07:16:29.204Z,10.90
2022-10-16T07:19:00.304Z,11.38
2022-10-16T07:21:29.884Z,12.27
2022-10-16T07:24:04.154Z,11.27
2022-10-16T07:26:32.233Z,11.15
2022-10-16T07:28:59.737Z,11.52
2022-10-16T07:31:27.142Z,11.73
2022-10-16T07:33:54.566Z,12.82
2022-10-16T07:36:22.461Z,10.15
2022-10-16T07:38:51.861Z,11.38
2022-10-16T07:41:21.449Z,10.60
2022-10-16T07:43:52.770Z,11.23
2022-10-16T07:46:21.149Z,11.20
2022-10-16T07:48:49.078Z,11.38
2022-10-16T07:51:17.630Z,11.65
2022-10-16T07:53:44.737Z,11.13
2022-10-16T07:56:12.746Z,10.98
2022-10-16T07:58:40.184Z,11.25
2022-10-16T08:01:08.584Z,10.38
2022-10-16T08:03:35.922Z,10.35
2022-10-16T08:06:03.506Z,9.15
2022-10-16T08:08:30.739Z,9.00
2022-10-16T08:10:58.155Z,9.00
2022-10-16T08:13:25.519Z,8.75
2022-10-16T08:15:52.631Z,8.05
2022-10-16T08:18:19.747Z,8.10
2022-10-16T08:20:46.942Z,8.50
2022-10-16T08:23:14.534Z,7.82
2022-10-16T08:25:42.074Z,7.40
2022-10-16T08:28:10.483Z,6.47
2022-10-16T08:30:38.121Z,7.05
2022-10-16T08:33:05.485Z,6.07
2022-10-16T08:35:32.665Z,5.90
2022-10-16T08:37:59.814Z,4.95
2022-10-16T08:40:29.057Z,5.25
2022-10-16T08:43:11.383Z,5.10
2022-10-16T08:45:58.755Z,5.38
2022-10-16T08:48:31.288Z,5.28
2022-10-16T08:50:58.574Z,5.45
2022-10-16T08:53:46.028Z,4.90
2022-10-16T08:56:13.143Z,4.70
2022-10-16T08:58:40.304Z,4.82
2022-10-16T09:01:13.820Z,4.68
2022-10-16T09:03:50.599Z,4.30
2022-10-16T09:06:28.619Z,5.40
2022-10-16T09:08:55.712Z,4.72
2022-10-16T09:11:22.803Z,3.90
2022-10-16T09:13:53.703Z,4.70
2022-10-16T09:16:24.165Z,4.25
2022-10-16T09:18:54.347Z,3.75
2022-10-16T09:21:24.964Z,4.10
2022-10-16T09:23:52.202Z,3.58
2022-10-16T09:28:53.867Z,3.28
2022-10-16T09:31:22.095Z,3.83
2022-10-16T09:33:52.208Z,3.10
2022-10-16T09:36:19.673Z,3.00
2022-10-16T09:38:46.831Z,3.72
2022-10-16T09:41:17.006Z,3.95
2022-10-16T09:43:49.971Z,4.28
2022-10-16T09:46:23.157Z,4.07
2022-10-16T09:48:51.595Z,4.00
2022-10-16T09:51:39.050Z,4.07
2022-10-16T09:54:12.370Z,3.97
2022-10-16T09:56:43.352Z,4.07
2022-10-16T09:59:12.879Z,4.35
2022-10-16T10:01:41.601Z,3.80
2022-10-16T10:04:09.168Z,4.30
2022-10-16T10:06:40.732Z,4.22
2022-10-16T10:09:21.950Z,4.50
2022-10-16T10:11:56.590Z,4.13
2022-10-16T10:14:23.897Z,3.50
2022-10-16T10:16:51.927Z,3.80
2022-10-16T10:19:20.361Z,4.13
2022-10-16T10:21:47.705Z,4.53
2022-10-16T10:24:15.778Z,4.43
2022-10-16T10:26:51.809Z,4.07
2022-10-16T10:29:43.058Z,3.50
2022-10-16T10:32:13.270Z,4.30
2022-10-16T10:34:43.127Z,3.58
2022-10-16T10:37:28.523Z,3.55
2022-10-16T10:40:02.584Z,3.35
2022-10-16T10:42:48.762Z,2.90
2022-10-16T10:45:39.206Z,3.30
2022-10-16T10:48:12.439Z,3.23
2022-10-16T10:50:56.626Z,2.80
2022-10-16T10:53:33.976Z,2.65
2022-10-16T10:56:07.105Z,2.55
2022-10-16T10:58:44.133Z,3.17
2022-10-16T11:01:15.645Z,2.50
2022-10-16T11:04:01.891Z,2.35
2022-10-16T11:09:46.829Z,2.50
2022-10-16T11:12:20.125Z,2.88
2022-10-16T11:15:03.086Z,3.05
2022-10-16T11:17:56.692Z,5.90
2022-10-16T11:20:28.429Z,3.50
2022-10-16T11:23:01.879Z,5.28
2022-10-16T11:25:30.227Z,6.57
2022-10-16T11:28:16.141Z,5.80
2022-10-16T11:30:43.378Z,4.55
2022-10-16T11:33:22.047Z,4.13
2022-10-16T11:35:49.288Z,3.95
2022-10-16T11:38:19.931Z,6.03
2022-10-16T11:40:50.081Z,4.85
2022-10-16T11:43:22.354Z,3.78
2022-10-16T11:46:00.898Z,3.15
2022-10-16T11:48:32.025Z,3.67
2022-10-16T11:51:05.238Z,3.85
2022-10-16T11:53:52.791Z,3.08
2022-10-16T11:56:20.965Z,3.47
2022-10-16T11:58:48.052Z,3.50
2022-10-16T12:01:33.477Z,3.40
2022-10-16T12:04:19.006Z,3.95
2022-10-16T12:06:49.548Z,3.67
2022-10-16T12:09:22.924Z,3.70
2022-10-16T12:11:50.429Z,3.92
2022-10-16T12:14:17.523Z,3.70
2022-10-16T12:16:53.949Z,4.20
2022-10-16T12:19:22.102Z,3.90
2022-10-16T12:21:49.790Z,3.90
2022-10-16T12:24:43.017Z,3.80
2022-10-16T12:27:28.927Z,4.07
2022-10-16T12:30:01.475Z,3.88
2022-10-16T12:32:48.038Z,3.28
2022-10-16T12:35:20.975Z,3.83
2022-10-16T12:37:48.225Z,3.13
2022-10-16T12:40:15.416Z,3.65
2022-10-16T12:42:42.847Z,3.20
2022-10-16T12:45:28.569Z,2.80
2022-10-16T12:47:56.419Z,3.00
2022-10-16T12:50:28.412Z,3.75
2022-10-16T12:52:55.766Z,3.40
2022-10-16T12:55:24.066Z,4.15
2022-10-16T12:57:51.476Z,3.80
2022-10-16T13:00:23.453Z,3.67
2022-10-16T13:03:11.691Z,4.00
2022-10-16T13:05:57.807Z,4.10
2022-10-16T13:08:51.608Z,4.65
2022-10-16T13:11:24.723Z,3.90
2022-10-16T13:14:00.941Z,3.90
2022-10-16T13:16:46.856Z,3.97
2022-10-16T13:19:26.386Z,4.00
2022-10-16T13:22:19.741Z,3.88
2022-10-16T13:25:07.933Z,3.97
2022-10-16T13:27:43.386Z,4.40
2022-10-16T13:30:21.331Z,3.83
2022-10-16T13:32:50.235Z,4.40
2022-10-16T13:35:27.813Z,4.45
2022-10-16T13:38:13.690Z,4.45
2022-10-16T13:41:10.052Z,4.63
2022-10-16T13:43:39.134Z,3.83
2022-10-16T13:46:07.857Z,3.80
2022-10-16T13:48:35.563Z,4.68
2022-10-16T13:51:16.736Z,4.00
2022-10-16T13:53:44.411Z,4.13
2022-10-16T13:56:13.445Z,3.92
2022-10-16T13:58:40.984Z,4.28
2022-10-16T14:01:17.838Z,3.80
2022-10-16T14:03:45.534Z,3.47
2022-10-16T14:06:14.772Z,4.40
2022-10-16T14:08:44.369Z,4.22
2022-10-16T14:11:11.800Z,3.88
2022-10-16T14:13:40.117Z,4.80
2022-10-16T14:16:11.486Z,4.30
2022-10-16T14:18:39.859Z,4.45
2022-10-16T14:21:15.571Z,5.35
2022-10-16T14:23:43.090Z,5.20
2022-10-16T14:26:10.176Z,4.93
2022-10-16T14:28:37.895Z,5.22
2022-10-16T14:31:23.761Z,4.50
2022-10-16T14:33:50.943Z,4.70
2022-10-16T14:36:19.600Z,5.00
2022-10-16T14:39:02.427Z,5.78
2022-10-16T14:41:30.493Z,4.90
2022-10-16T14:44:05.405Z,4.50
2022-10-16T14:46:39.477Z,4.00
2022-10-16T14:49:06.634Z,4.65
2022-10-16T14:51:33.809Z,5.10
2022-10-16T14:54:01.139Z,4.85
2022-10-16T14:56:33.141Z,4.95
2022-10-16T14:59:00.661Z,5.18
2022-10-16T15:01:27.777Z,5.20
2022-10-16T15:03:56.150Z,4.22
2022-10-16T15:06:23.353Z,4.07
2022-10-16T15:08:50.511Z,6.70
2022-10-16T15:11:19.048Z,5.45
2022-10-16T15:13:46.618Z,4.38
2022-10-16T15:16:15.026Z,6.25
2022-10-16T15:18:42.340Z,8.73
2022-10-16T15:21:09.908Z,5.07
2022-10-16T15:23:37.076Z,12.13
2022-10-16T15:26:04.307Z,6.15
2022-10-16T15:28:31.531Z,5.13
2022-10-16T15:30:58.871Z,10.80
2022-10-16T15:33:29.275Z,8.32
2022-10-16T15:35:56.663Z,5.72
2022-10-16T15:38:24.375Z,3.90
2022-10-16T15:40:51.953Z,3.95
2022-10-16T15:43:19.814Z,3.65
2022-10-16T15:46:00.008Z,3.60
2022-10-16T15:48:27.190Z,3.20
2022-10-16T15:50:54.338Z,3.75
2022-10-16T15:53:21.534Z,3.50
2022-10-16T15:55:48.683Z,4.18
2022-10-16T15:58:15.954Z,4.68
2022-10-16T16:00:43.347Z,4.20
2022-10-16T16:03:10.778Z,4.28
2022-10-16T16:05:45.524Z,4.20
2022-10-16T16:08:13.788Z,5.13
2022-10-16T16:10:40.954Z,6.93
2022-10-16T16:13:08.110Z,7.25
2022-10-16T16:15:35.422Z,7.32
2022-10-16T16:20:36.565Z,8.73
2022-10-16T16:23:03.702Z,10.88
2022-10-16T16:25:30.863Z,11.20
2022-10-16T16:27:58.058Z,10.98
2022-10-16T16:30:28.214Z,12.85
2022-10-16T16:32:55.614Z,14.10
2022-10-16T16:35:23.147Z,14.07
2022-10-16T16:37:50.315Z,14.05
2022-10-16T16:40:17.422Z,14.02
2022-10-16T16:42:44.749Z,15.80
2022-10-16T16:45:11.913Z,14.75
2022-10-16T16:47:39.741Z,13.27
2022-10-16T16:50:08.073Z,14.30
2022-10-16T16:52:36.341Z,13.65
2022-10-16T16:55:03.586Z,13.65
2022-10-16T16:57:30.907Z,14.80
2022-10-16T16:59:58.209Z,12.93
2022-10-16T17:02:26.612Z,12.05
2022-10-16T17:04:54.411Z,12.45
2022-10-16T17:07:24.060Z,12.25
2022-10-16T17:09:51.544Z,12.02
2022-10-16T17:12:18.717Z,11.00
2022-10-16T17:14:45.881Z,10.68
2022-10-16T17:17:13.006Z,11.35
2022-10-16T17:19:40.282Z,10.50
2022-10-16T17:22:07.464Z,11.25
2022-10-16T17:24:34.643Z,10.32
2022-10-16T17:27:01.974Z,10.32
2022-10-16T17:29:29.114Z,8.48
2022-10-16T17:31:59.261Z,8.60
2022-10-16T17:34:26.623Z,9.57
2022-10-16T17:36:53.762Z,8.77
2022-10-16T17:39:20.946Z,8.07
2022-10-16T17:41:48.864Z,7.25
2022-10-16T17:44:20.138Z,7.20
2022-10-16T17:49:15.074Z,7.32
2022-10-16T17:51:42.307Z,7.15
2022-10-16T17:54:10.565Z,7.18
2022-10-16T17:56:38.060Z,7.15
2022-10-16T17:59:05.330Z,7.97
2022-10-16T18:01:33.938Z,7.47
2022-10-16T18:04:02.575Z,7.75
2022-10-16T18:06:29.981Z,8.07
2022-10-16T18:08:58.205Z,7.60
2022-10-16T18:11:25.533Z,8.10
2022-10-16T18:13:53.654Z,7.53
2022-10-16T18:16:20.976Z,8.43
2022-10-16T18:18:48.612Z,7.47
2022-10-16T18:21:16.904Z,7.20
2022-10-16T18:23:49.060Z,7.43
2022-10-16T18:26:19.597Z,7.38
2022-10-16T18:28:46.843Z,7.05
2022-10-16T18:31:15.378Z,7.43
2022-10-16T18:33:48.151Z,7.45
2022-10-16T18:36:15.766Z,7.45
2022-10-16T18:38:42.936Z,8.02
2022-10-16T18:41:10.532Z,7.32
2022-10-16T18:43:38.865Z,7.80
2022-10-16T18:46:08.058Z,7.43
2022-10-16T18:48:35.365Z,7.60
2022-10-16T18:51:11.793Z,7.18
2022-10-16T18:53:39.914Z,8.00
2022-10-16T18:56:07.221Z,8.45
2022-10-16T18:58:35.449Z,8.98
2022-10-16T19:01:06.436Z,8.05
2022-10-16T19:03:34.083Z,8.73
2022-10-16T19:06:02.099Z,8.30
2022-10-16T19:08:32.264Z,8.60
2022-10-16T19:11:09.831Z,9.02
2022-10-16T19:13:37.469Z,9.05
2022-10-16T19:16:19.398Z,8.60
2022-10-16T19:18:47.453Z,7.28
2022-10-16T19:21:15.782Z,7.93
2022-10-16T19:23:43.193Z,8.27
2022-10-16T19:26:12.205Z,7.75
2022-10-16T19:28:39.929Z,7.38
2022-10-16T19:31:08.707Z,7.95
2022-10-16T19:33:35.908Z,8.10
2022-10-16T19:36:08.915Z,7.72
2022-10-16T19:38:36.168Z,7.55
2022-10-16T19:41:21.897Z,8.55
2022-10-16T19:43:49.076Z,8.20
2022-10-16T19:46:17.824Z,8.05
2022-10-16T19:48:45.289Z,8.32
2022-10-16T19:51:13.293Z,8.30
2022-10-16T19:53:40.402Z,9.25
2022-10-16T19:56:17.886Z,9.57
2022-10-16T19:58:45.414Z,8.20
2022-10-16T20:01:13.621Z,7.95
2022-10-16T20:03:40.889Z,8.05
2022-10-16T20:06:08.807Z,8.02
2022-10-16T20:08:36.949Z,8.35
2022-10-16T20:11:05.074Z,8.75
2022-10-16T20:13:32.616Z,9.02
2022-10-16T20:15:59.894Z,9.30
2022-10-16T20:18:27.143Z,8.25
2022-10-16T20:20:55.108Z,8.80
2022-10-16T20:23:23.924Z,9.10
2022-10-16T20:25:52.707Z,8.27
2022-10-16T20:28:21.511Z,7.30
2022-10-16T20:30:50.095Z,8.50
2022-10-16T20:33:18.049Z,7.28
2022-10-16T20:35:46.361Z,7.90
2022-10-16T20:38:14.506Z,7.47
2022-10-16T20:40:43.115Z,8.30
2022-10-16T20:43:14.449Z,7.20
2022-10-16T20:45:41.971Z,7.53
2022-10-16T20:48:11.177Z,7.38
2022-10-16T20:50:38.928Z,7.43
2022-10-16T20:53:06.065Z,7.25
2022-10-16T20:55:35.470Z,7.75
2022-10-16T20:58:02.697Z,7.50
2022-10-16T21:00:29.818Z,7.05
2022-10-16T21:02:57.484Z,7.38
2022-10-16T21:05:25.096Z,7.57
2022-10-16T21:07:52.197Z,7.53
2022-10-16T21:10:19.976Z,7.22
2022-10-16T21:12:47.085Z,8.40
2022-10-16T21:15:15.396Z,7.75
2022-10-16T21:17:43.223Z,8.48
2022-10-16T21:20:10.563Z,7.75
2022-10-16T21:22:37.761Z,7.18
2022-10-16T21:25:05.586Z,8.05
2022-10-16T21:27:37.578Z,8.45
2022-10-16T21:30:05.730Z,8.00
2022-10-16T21:35:19.842Z,7.55
2022-10-16T21:37:50.374Z,7.13
2022-10-16T21:40:17.514Z,8.18
2022-10-16T21:42:44.793Z,9.00
2022-10-16T21:45:11.965Z,7.88
2022-10-16T21:47:39.086Z,7.13
2022-10-16T21:50:06.494Z,7.82
2022-10-16T21:52:33.624Z,7.72
2022-10-16T21:55:00.730Z,7.55
2022-10-16T21:57:28.276Z,7.55
2022-10-16T21:59:55.550Z,7.88
2022-10-16T22:02:22.688Z,7.90
2022-10-16T22:04:49.960Z,8.93
2022-10-16T22:07:17.176Z,8.15
2022-10-16T22:09:44.364Z,8.02
2022-10-16T22:12:11.555Z,8.30
2022-10-16T22:14:40.801Z,8.10
2022-10-16T22:17:10.926Z,8.23
2022-10-16T22:19:38.244Z,7.95
2022-10-16T22:22:05.393Z,8.05
2022-10-16T22:27:05.231Z,7.88
2022-10-16T22:29:32.340Z,7.07
2022-10-16T22:31:59.520Z,7.47
2022-10-16T22:34:28.130Z,7.75
2022-10-16T22:36:55.237Z,7.38
2022-10-16T22:39:22.359Z,7.93
2022-10-16T22:41:49.649Z,7.85
2022-10-16T22:44:16.760Z,8.13
2022-10-16T22:46:43.949Z,7.85
2022-10-16T22:49:11.221Z,8.18
2022-10-16T22:51:38.405Z,8.32
2022-10-16T22:54:05.641Z,7.85
2022-10-16T22:56:32.794Z,7.43
2022-10-16T22:58:59.896Z,7.53
2022-10-16T23:01:28.877Z,7.47
2022-10-16T23:03:56.265Z,7.50
2022-10-16T23:06:23.553Z,7.53
2022-10-16T23:08:54.196Z,8.18
2022-10-16T23:11:21.542Z,8.15
2022-10-16T23:13:49.053Z,8.85
2022-10-16T23:16:17.085Z,7.95
2022-10-16T23:18:44.976Z,8.80
2022-10-16T23:21:13.588Z,8.07
2022-10-16T23:23:41.122Z,8.90
2022-10-16T23:26:15.677Z,8.70
2022-10-16T23:28:43.286Z,7.28
2022-10-16T23:31:11.082Z,8.82
2022-10-16T23:33:38.734Z,7.80
2022-10-16T23:36:06.880Z,8.18
2022-10-16T23:38:34.016Z,8.18
2022-10-16T23:41:01.293Z,8.50
2022-10-16T23:43:28.416Z,8.38
2022-10-16T23:45:55.569Z,8.10
2022-10-16T23:48:22.752Z,8.45
2022-10-16T23:50:49.865Z,8.07
2022-10-16T23:53:17.048Z,7.82
2022-10-16T23:55:44.279Z,8.48
2022-10-16T23:58:11.401Z,7.88
